Time;durP1;ratioP1;P1;durP2;ratioP2;P2;SDS_P1;SDS_P2;PMS_P1;PMS_P2;Temp;Humidity;BMP_temperature;BMP_pressure;BME280_temperature;BME280_humidity;BME280_pressure;Samples;Min_cycle;Max_cycle;Signal;HPM_P1;HPM_P2
2023/04/16 00:01:02;;;;;;;47.47;24.77;;;;;;;;;;5048384;28;20026;-74
2023/04/16 00:03:28;;;;;;;40.42;23.23;;;;;;;;;;5052760;28;20045;-74
2023/04/16 00:05:56;;;;;;;45.33;25.40;;;;;;;;;;5052309;28;20063;-72
2023/04/16 00:08:25;;;;;;;45.38;23.77;;;;;;;;;;5052345;28;20494;-72
2023/04/16 00:10:55;;;;;;;45.15;25.75;;;;;;;;;;5052624;28;20025;-73
2023/04/16 00:13:21;;;;;;;40.35;24.13;;;;;;;;;;5052296;28;20020;-73
2023/04/16 00:15:47;;;;;;;45.03;24.60;;;;;;;;;;5052414;28;20502;-73
2023/04/16 00:18:13;;;;;;;52.67;26.10;;;;;;;;;;5051868;28;20032;-74
2023/04/16 00:20:39;;;;;;;44.42;24.30;;;;;;;;;;5052388;28;20024;-72
2023/04/16 00:23:05;;;;;;;46.33;25.25;;;;;;;;;;5052180;28;20417;-72
2023/04/16 00:25:31;;;;;;;43.13;23.83;;;;;;;;;;5053706;28;20028;-73
2023/04/16 00:27:57;;;;;;;48.08;24.30;;;;;;;;;;5053131;28;20029;-73
2023/04/16 00:30:23;;;;;;;38.80;23.15;;;;;;;;;;5053338;28;20056;-74
2023/04/16 00:32:49;;;;;;;46.97;25.70;;;;;;;;;;5051312;28;20028;-73
2023/04/16 00:35:15;;;;;;;46.85;24.90;;;;;;;;;;5053523;28;20021;-73
2023/04/16 00:37:41;;;;;;;41.33;23.88;;;;;;;;;;5056970;28;20028;-72
2023/04/16 00:40:07;;;;;;;41.05;24.08;;;;;;;;;;5072330;28;20355;-74
2023/04/16 00:42:35;;;;;;;40.55;25.35;;;;;;;;;;5071497;28;20029;-73
2023/04/16 00:45:01;;;;;;;49.08;25.33;;;;;;;;;;5073621;28;20354;-73
2023/04/16 00:47:28;;;;;;;43.28;24.67;;;;;;;;;;5072485;28;20031;-72
2023/04/16 00:49:54;;;;;;;45.20;26.10;;;;;;;;;;5073040;28;20025;-72
2023/04/16 00:52:20;;;;;;;45.20;24.15;;;;;;;;;;5074113;28;20424;-75
2023/04/16 00:54:46;;;;;;;46.00;25.13;;;;;;;;;;5073877;28;20107;-72
2023/04/16 00:57:13;;;;;;;47.03;25.63;;;;;;;;;;5074473;28;20016;-72
2023/04/16 00:59:41;;;;;;;45.08;24.10;;;;;;;;;;5074137;28;20078;-73
2023/04/16 01:02:07;;;;;;;41.70;25.10;;;;;;;;;;5072625;28;20078;-71
2023/04/16 01:04:33;;;;;;;41.10;24.17;;;;;;;;;;5071379;28;20064;-75
2023/04/16 01:06:59;;;;;;;42.38;23.65;;;;;;;;;;5071510;28;20036;-72
2023/04/16 01:09:25;;;;;;;45.28;24.30;;;;;;;;;;5071412;28;20058;-72
2023/04/16 01:11:51;;;;;;;42.38;23.90;;;;;;;;;;5072215;28;20028;-72
2023/04/16 01:14:17;;;;;;;37.03;22.38;;;;;;;;;;5076624;28;20035;-72
2023/04/16 01:16:43;;;;;;;44.17;23.77;;;;;;;;;;5075133;28;20028;-70
2023/04/16 01:19:09;;;;;;;42.67;24.55;;;;;;;;;;5073181;28;20037;-73
2023/04/16 01:21:35;;;;;;;43.10;24.40;;;;;;;;;;5072714;28;20037;-72
2023/04/16 01:24:04;;;;;;;42.58;23.85;;;;;;;;;;5071920;28;20039;-70
2023/04/16 01:26:30;;;;;;;46.10;23.10;;;;;;;;;;5070911;28;20315;-70
2023/04/16 01:28:57;;;;;;;38.92;22.63;;;;;;;;;;5072179;28;20413;-71
2023/04/16 01:31:22;;;;;;;39.47;23.08;;;;;;;;;;5075608;28;20055;-72
2023/04/16 01:33:48;;;;;;;40.17;23.95;;;;;;;;;;5075055;28;20530;-71
2023/04/16 01:36:15;;;;;;;41.78;23.30;;;;;;;;;;5075912;28;20084;-71
2023/04/16 01:38:40;;;;;;;35.63;22.33;;;;;;;;;;5075397;28;20082;-71
2023/04/16 01:41:07;;;;;;;43.92;21.92;;;;;;;;;;5075783;28;20036;-71
2023/04/16 01:43:32;;;;;;;41.25;22.08;;;;;;;;;;5075761;28;20036;-71
2023/04/16 01:46:19;;;;;;;37.53;22.55;;;;;;;;;;5075354;28;20025;-71
2023/04/16 01:48:45;;;;;;;39.72;22.25;;;;;;;;;;5064560;28;20085;-73
2023/04/16 01:51:11;;;;;;;36.95;22.20;;;;;;;;;;5073704;28;20070;-73
2023/04/16 01:53:37;;;;;;;42.67;23.02;;;;;;;;;;5073796;28;20386;-73
2023/04/16 01:56:03;;;;;;;39.25;23.67;;;;;;;;;;5075273;28;20028;-71
2023/04/16 01:58:29;;;;;;;38.50;23.17;;;;;;;;;;5074888;28;20025;-71
2023/04/16 02:00:55;;;;;;;40.97;22.92;;;;;;;;;;5074933;28;20043;-71
2023/04/16 02:03:23;;;;;;;42.15;22.20;;;;;;;;;;5074376;28;20428;-74
2023/04/16 02:05:49;;;;;;;46.08;23.52;;;;;;;;;;5074899;28;20105;-71
2023/04/16 02:08:15;;;;;;;45.72;23.50;;;;;;;;;;5051987;28;20513;-70
2023/04/16 02:10:41;;;;;;;37.67;22.55;;;;;;;;;;5054555;28;20070;-71
2023/04/16 02:13:07;;;;;;;34.22;20.98;;;;;;;;;;5058346;28;20096;-70
2023/04/16 02:15:33;;;;;;;39.60;22.33;;;;;;;;;;5054362;28;20463;-71
2023/04/16 02:17:59;;;;;;;40.13;23.58;;;;;;;;;;5057223;28;20033;-71
2023/04/16 02:20:25;;;;;;;41.22;21.83;;;;;;;;;;5054461;28;20435;-71
2023/04/16 02:22:51;;;;;;;38.20;23.13;;;;;;;;;;5051764;28;20035;-70
2023/04/16 02:25:17;;;;;;;44.00;23.83;;;;;;;;;;5054421;28;20029;-71
2023/04/16 02:27:43;;;;;;;41.65;25.08;;;;;;;;;;5054043;28;20513;-70
2023/04/16 02:30:09;;;;;;;43.95;24.90;;;;;;;;;;5054260;28;20108;-70
2023/04/16 02:32:35;;;;;;;49.92;25.92;;;;;;;;;;5053878;28;20040;-69
2023/04/16 02:35:02;;;;;;;46.58;25.42;;;;;;;;;;5054217;28;20022;-70
2023/04/16 02:37:29;;;;;;;53.45;26.92;;;;;;;;;;5053924;28;20024;-70
2023/04/16 02:39:56;;;;;;;41.28;25.02;;;;;;;;;;5054144;28;20021;-71
2023/04/16 02:42:22;;;;;;;40.97;24.42;;;;;;;;;;5053855;28;20029;-72
2023/04/16 02:44:48;;;;;;;47.42;26.48;;;;;;;;;;5054372;28;20040;-71
2023/04/16 02:47:14;;;;;;;45.05;24.63;;;;;;;;;;5053857;28;20025;-70
2023/04/16 02:49:40;;;;;;;40.97;25.13;;;;;;;;;;5054070;28;20021;-70
2023/04/16 02:52:06;;;;;;;46.90;25.48;;;;;;;;;;5053759;28;20028;-70
2023/04/16 02:54:32;;;;;;;41.53;24.85;;;;;;;;;;5054286;28;20021;-69
2023/04/16 02:56:58;;;;;;;40.80;24.85;;;;;;;;;;5053835;28;20024;-69
2023/04/16 02:59:24;;;;;;;47.08;25.60;;;;;;;;;;5053864;28;20025;-70
2023/04/16 03:01:50;;;;;;;43.70;26.05;;;;;;;;;;5053501;28;20056;-70
2023/04/16 03:04:16;;;;;;;45.80;26.23;;;;;;;;;;5053868;28;20447;-70
2023/04/16 03:06:42;;;;;;;39.80;25.13;;;;;;;;;;5053524;28;20021;-72
2023/04/16 03:09:08;;;;;;;47.90;27.00;;;;;;;;;;5047097;28;20475;-70
2023/04/16 03:11:34;;;;;;;42.03;24.55;;;;;;;;;;5053156;28;20032;-70
2023/04/16 03:14:00;;;;;;;40.30;24.70;;;;;;;;;;5053686;28;20021;-71
2023/04/16 03:16:26;;;;;;;41.90;24.55;;;;;;;;;;5053176;28;20078;-70
2023/04/16 03:18:52;;;;;;;46.50;25.35;;;;;;;;;;5060883;28;20025;-70
2023/04/16 03:21:18;;;;;;;39.83;24.92;;;;;;;;;;5050707;28;20063;-69
2023/04/16 03:23:44;;;;;;;42.67;24.27;;;;;;;;;;5052902;28;20025;-70
2023/04/16 03:26:10;;;;;;;47.72;25.75;;;;;;;;;;5054524;28;20047;-69
2023/04/16 03:28:36;;;;;;;42.50;25.70;;;;;;;;;;5054828;28;20037;-69
2023/04/16 03:31:02;;;;;;;49.85;25.77;;;;;;;;;;5053159;28;20039;-70
2023/04/16 03:33:28;;;;;;;42.33;24.38;;;;;;;;;;5052692;28;20021;-71
2023/04/16 03:35:57;;;;;;;41.80;24.08;;;;;;;;;;5052909;28;20441;-69
2023/04/16 03:38:25;;;;;;;41.65;24.33;;;;;;;;;;5053399;28;20410;-70
2023/04/16 03:40:51;;;;;;;48.17;24.65;;;;;;;;;;5052985;28;20024;-71
2023/04/16 03:43:17;;;;;;;44.83;25.05;;;;;;;;;;5052465;28;20070;-70
2023/04/16 03:45:46;;;;;;;48.33;25.15;;;;;;;;;;5052561;28;20405;-70
2023/04/16 03:48:12;;;;;;;43.45;24.27;;;;;;;;;;5052418;28;20036;-70
2023/04/16 03:50:38;;;;;;;38.00;22.48;;;;;;;;;;5052677;28;20028;-69
2023/04/16 03:53:04;;;;;;;45.47;24.10;;;;;;;;;;5051768;28;20021;-69
2023/04/16 03:55:30;;;;;;;38.33;24.10;;;;;;;;;;5052921;28;20076;-69
2023/04/16 03:57:56;;;;;;;38.45;23.02;;;;;;;;;;5053014;28;20021;-70
2023/04/16 04:00:22;;;;;;;45.30;24.33;;;;;;;;;;5052899;28;20478;-71
2023/04/16 04:02:48;;;;;;;41.13;23.75;;;;;;;;;;5052523;28;20033;-71
2023/04/16 04:05:14;;;;;;;41.45;23.58;;;;;;;;;;5052795;28;20086;-70
2023/04/16 04:07:40;;;;;;;42.10;24.23;;;;;;;;;;5052485;28;20053;-69
2023/04/16 04:10:07;;;;;;;39.25;24.02;;;;;;;;;;5052531;28;20032;-74
2023/04/16 04:12:33;;;;;;;40.40;22.67;;;;;;;;;;5046317;28;20025;-70
2023/04/16 04:14:59;;;;;;;42.45;23.85;;;;;;;;;;5059089;28;20037;-70
2023/04/16 04:17:25;;;;;;;44.15;23.30;;;;;;;;;;5052108;28;20371;-70
2023/04/16 04:19:52;;;;;;;38.33;23.63;;;;;;;;;;5052104;28;20086;-71
2023/04/16 04:22:18;;;;;;;40.55;24.38;;;;;;;;;;5057369;28;20475;-71
2023/04/16 04:24:44;;;;;;;37.80;24.25;;;;;;;;;;5052537;28;20025;-71
2023/04/16 04:27:10;;;;;;;43.25;23.25;;;;;;;;;;5050311;28;20029;-71
2023/04/16 04:29:36;;;;;;;41.45;23.88;;;;;;;;;;5054444;28;20076;-71
2023/04/16 04:32:02;;;;;;;38.72;24.58;;;;;;;;;;5055888;28;20036;-71
2023/04/16 04:34:28;;;;;;;40.10;24.85;;;;;;;;;;5055303;28;20053;-75
2023/04/16 04:36:54;;;;;;;38.22;23.33;;;;;;;;;;5046529;28;20051;-73
2023/04/16 04:39:20;;;;;;;39.22;23.90;;;;;;;;;;5051689;28;20029;-71
2023/04/16 04:41:47;;;;;;;39.30;23.85;;;;;;;;;;5050921;28;20051;-72
2023/04/16 04:44:13;;;;;;;40.40;23.48;;;;;;;;;;5051709;28;20351;-71
2023/04/16 04:46:39;;;;;;;43.08;23.65;;;;;;;;;;5058667;28;20047;-72
2023/04/16 04:49:05;;;;;;;46.20;25.20;;;;;;;;;;5045339;28;20025;-71
2023/04/16 04:51:32;;;;;;;46.92;24.63;;;;;;;;;;5053228;28;20049;-73
2023/04/16 04:53:58;;;;;;;42.08;24.30;;;;;;;;;;5051603;28;20037;-74
2023/04/16 04:56:24;;;;;;;44.85;24.60;;;;;;;;;;5051662;28;20159;-73
2023/04/16 04:58:50;;;;;;;40.65;23.90;;;;;;;;;;5051706;28;20025;-71
2023/04/16 05:01:16;;;;;;;40.78;24.48;;;;;;;;;;5051700;28;20025;-70
2023/04/16 05:03:42;;;;;;;42.78;24.20;;;;;;;;;;5051331;28;20029;-70
2023/04/16 05:06:08;;;;;;;42.17;24.33;;;;;;;;;;5051684;28;20437;-71
2023/04/16 05:08:34;;;;;;;41.33;24.63;;;;;;;;;;5051537;28;20029;-73
2023/04/16 05:11:00;;;;;;;42.65;25.27;;;;;;;;;;5051838;28;20025;-74
2023/04/16 05:13:26;;;;;;;48.45;25.58;;;;;;;;;;5053917;28;20025;-74
2023/04/16 05:15:52;;;;;;;40.40;25.38;;;;;;;;;;5049396;28;20063;-72
2023/04/16 05:18:18;;;;;;;40.78;24.65;;;;;;;;;;5049493;28;20053;-72
2023/04/16 05:20:44;;;;;;;38.88;24.40;;;;;;;;;;5044423;28;20421;-71
2023/04/16 05:23:10;;;;;;;48.55;25.67;;;;;;;;;;5049979;28;20032;-70
2023/04/16 05:25:36;;;;;;;46.03;25.60;;;;;;;;;;5051953;28;20040;-71
2023/04/16 05:28:02;;;;;;;45.00;24.88;;;;;;;;;;5050071;28;20115;-72
2023/04/16 05:30:28;;;;;;;43.10;25.48;;;;;;;;;;5050581;28;20040;-70
2023/04/16 05:32:54;;;;;;;48.30;25.67;;;;;;;;;;5047867;28;20017;-69
2023/04/16 05:35:20;;;;;;;44.45;25.08;;;;;;;;;;5050589;28;20017;-72
2023/04/16 05:37:46;;;;;;;49.05;25.65;;;;;;;;;;5052689;28;20036;-69
2023/04/16 05:40:13;;;;;;;46.40;25.90;;;;;;;;;;5050140;28;20029;-71
2023/04/16 05:42:39;;;;;;;40.05;24.60;;;;;;;;;;5049638;28;20070;-71
2023/04/16 05:45:06;;;;;;;41.00;24.75;;;;;;;;;;5050121;28;20034;-70
2023/04/16 05:47:32;;;;;;;39.55;23.73;;;;;;;;;;5046545;28;20054;-71
2023/04/16 05:49:58;;;;;;;37.90;24.27;;;;;;;;;;5058290;28;20028;-71
2023/04/16 05:52:24;;;;;;;43.92;26.73;;;;;;;;;;5050581;28;20025;-71
2023/04/16 05:54:50;;;;;;;40.75;24.20;;;;;;;;;;5050830;28;20017;-71
2023/04/16 05:57:16;;;;;;;40.78;24.63;;;;;;;;;;5049611;28;20097;-72
2023/04/16 05:59:42;;;;;;;41.28;25.00;;;;;;;;;;5050827;28;20280;-71
2023/04/16 06:02:08;;;;;;;43.72;24.63;;;;;;;;;;5050569;28;20455;-69
2023/04/16 06:04:37;;;;;;;41.47;25.15;;;;;;;;;;5050814;28;20021;-70
2023/04/16 06:07:03;;;;;;;43.15;24.25;;;;;;;;;;5050748;28;20030;-70
2023/04/16 06:09:29;;;;;;;44.33;25.45;;;;;;;;;;5050653;28;20041;-69
2023/04/16 06:11:56;;;;;;;40.70;24.13;;;;;;;;;;5051302;28;20497;-70
2023/04/16 06:14:22;;;;;;;42.85;24.83;;;;;;;;;;5050607;28;20490;-71
2023/04/16 06:16:48;;;;;;;42.40;25.25;;;;;;;;;;5055175;28;20489;-71
2023/04/16 06:19:14;;;;;;;42.55;24.15;;;;;;;;;;5055727;28;20036;-73
2023/04/16 06:21:40;;;;;;;44.78;24.70;;;;;;;;;;5054355;28;20032;-71
2023/04/16 06:24:06;;;;;;;45.53;26.52;;;;;;;;;;5054284;28;20035;-71
2023/04/16 06:26:32;;;;;;;46.47;24.55;;;;;;;;;;5054503;28;20025;-70
2023/04/16 06:28:58;;;;;;;41.42;24.35;;;;;;;;;;5054161;28;20483;-70
2023/04/16 06:31:24;;;;;;;40.13;23.38;;;;;;;;;;5054359;28;20024;-70
2023/04/16 06:33:50;;;;;;;43.22;24.00;;;;;;;;;;5054220;28;20017;-70
2023/04/16 06:36:16;;;;;;;42.63;23.85;;;;;;;;;;5055057;28;20056;-71
2023/04/16 06:38:42;;;;;;;44.05;24.88;;;;;;;;;;5055244;28;20024;-71
2023/04/16 06:41:08;;;;;;;43.58;24.10;;;;;;;;;;5056544;28;20425;-70
2023/04/16 06:43:34;;;;;;;44.20;24.35;;;;;;;;;;5053990;28;20052;-70
2023/04/16 06:46:00;;;;;;;43.30;24.05;;;;;;;;;;5054319;28;20033;-71
2023/04/16 06:48:27;;;;;;;44.22;23.95;;;;;;;;;;5054320;28;20151;-71
2023/04/16 06:50:54;;;;;;;45.35;24.40;;;;;;;;;;5054469;28;20021;-72
2023/04/16 06:53:20;;;;;;;39.50;23.13;;;;;;;;;;5053609;28;20099;-69
2023/04/16 06:55:46;;;;;;;45.30;24.10;;;;;;;;;;5051199;28;20081;-72
2023/04/16 06:58:12;;;;;;;40.42;22.75;;;;;;;;;;5053373;28;20029;-71
2023/04/16 07:00:38;;;;;;;39.88;23.85;;;;;;;;;;5053760;28;20497;-71
2023/04/16 07:03:04;;;;;;;43.85;23.48;;;;;;;;;;5052630;28;20353;-71
2023/04/16 07:05:30;;;;;;;38.42;22.80;;;;;;;;;;5053780;28;20033;-73
2023/04/16 07:07:56;;;;;;;43.55;24.33;;;;;;;;;;5052595;28;20039;-71
2023/04/16 07:10:22;;;;;;;37.30;21.83;;;;;;;;;;5052652;28;20025;-70
2023/04/16 07:12:48;;;;;;;40.15;23.80;;;;;;;;;;5052241;28;20435;-72
2023/04/16 07:15:15;;;;;;;38.60;22.38;;;;;;;;;;5052815;28;20103;-73
2023/04/16 07:17:41;;;;;;;46.28;23.20;;;;;;;;;;5052714;28;20087;-73
2023/04/16 07:20:07;;;;;;;37.88;22.27;;;;;;;;;;5052388;28;20479;-73
2023/04/16 07:22:33;;;;;;;37.63;20.83;;;;;;;;;;5052339;28;20028;-74
2023/04/16 07:24:59;;;;;;;37.47;22.13;;;;;;;;;;5052408;28;20107;-74
2023/04/16 07:27:26;;;;;;;37.15;21.92;;;;;;;;;;5052264;28;20544;-76
2023/04/16 07:29:52;;;;;;;44.42;22.65;;;;;;;;;;5052658;28;20048;-73
2023/04/16 07:32:18;;;;;;;36.38;21.33;;;;;;;;;;5053439;28;20017;-72
2023/04/16 07:34:44;;;;;;;36.28;21.38;;;;;;;;;;5053378;28;20028;-69
2023/04/16 07:37:10;;;;;;;36.50;20.30;;;;;;;;;;5051322;28;20025;-73
2023/04/16 07:39:36;;;;;;;35.97;22.75;;;;;;;;;;5053341;28;20096;-73
2023/04/16 07:42:02;;;;;;;38.97;22.08;;;;;;;;;;5052435;28;20040;-72
2023/04/16 07:44:28;;;;;;;35.53;21.42;;;;;;;;;;5052021;28;20346;-74
2023/04/16 07:46:54;;;;;;;38.25;21.67;;;;;;;;;;5051857;28;20108;-74
2023/04/16 07:49:20;;;;;;;36.97;19.80;;;;;;;;;;5051854;28;20522;-73
2023/04/16 07:51:46;;;;;;;35.92;21.58;;;;;;;;;;5051605;28;20486;-72
2023/04/16 07:54:12;;;;;;;34.33;20.30;;;;;;;;;;5051624;28;20029;-75
2023/04/16 07:56:38;;;;;;;33.08;20.63;;;;;;;;;;5052366;28;20024;-74
2023/04/16 07:59:04;;;;;;;39.70;21.33;;;;;;;;;;5052863;28;20029;-72
2023/04/16 08:01:30;;;;;;;32.05;19.92;;;;;;;;;;5053576;28;20389;-71
2023/04/16 08:03:56;;;;;;;40.55;20.35;;;;;;;;;;5053298;28;20071;-72
2023/04/16 08:06:22;;;;;;;35.47;20.25;;;;;;;;;;5054947;28;20040;-75
2023/04/16 08:08:48;;;;;;;33.95;19.42;;;;;;;;;;5052307;28;20029;-73
2023/04/16 08:11:14;;;;;;;33.67;18.92;;;;;;;;;;5053948;28;20498;-74
2023/04/16 08:13:40;;;;;;;36.30;20.00;;;;;;;;;;5053130;28;20104;-71
2023/04/16 08:16:07;;;;;;;32.70;18.85;;;;;;;;;;5050575;28;20103;-71
2023/04/16 08:18:33;;;;;;;30.73;18.83;;;;;;;;;;5050182;28;20033;-71
2023/04/16 08:20:59;;;;;;;29.30;18.17;;;;;;;;;;5052060;28;20033;-73
2023/04/16 08:23:25;;;;;;;37.00;19.20;;;;;;;;;;5051881;28;20096;-72
2023/04/16 08:25:51;;;;;;;32.38;19.27;;;;;;;;;;5052168;28;20453;-71
2023/04/16 08:28:17;;;;;;;40.35;20.05;;;;;;;;;;5051002;28;20380;-70
2023/04/16 08:30:44;;;;;;;35.80;18.33;;;;;;;;;;5051039;28;20083;-70
2023/04/16 08:33:10;;;;;;;28.33;18.73;;;;;;;;;;5050660;28;20019;-71
2023/04/16 08:35:36;;;;;;;35.70;19.50;;;;;;;;;;5051452;28;20030;-72
2023/04/16 08:38:03;;;;;;;32.42;18.95;;;;;;;;;;5052662;28;20033;-71
2023/04/16 08:40:29;;;;;;;30.33;17.38;;;;;;;;;;5053536;28;20025;-72
2023/04/16 08:42:58;;;;;;;34.33;18.95;;;;;;;;;;5052869;28;20153;-70
2023/04/16 08:45:25;;;;;;;31.67;19.95;;;;;;;;;;5053860;28;20029;-70
2023/04/16 08:47:51;;;;;;;31.45;18.83;;;;;;;;;;5059665;28;20475;-71
2023/04/16 08:50:22;;;;;;;36.58;19.42;;;;;;;;;;5052439;28;20024;-70
2023/04/16 08:52:58;;;;;;;35.05;18.30;;;;;;;;;;5070495;28;20024;-70
2023/04/16 08:55:37;;;;;;;29.45;19.00;;;;;;;;;;5071370;28;20386;-71
2023/04/16 08:58:07;;;;;;;34.83;17.52;;;;;;;;;;5070811;28;20024;-70
2023/04/16 09:00:34;;;;;;;28.70;17.35;;;;;;;;;;5070461;28;20032;-71
2023/04/16 09:03:00;;;;;;;28.90;17.90;;;;;;;;;;5069648;28;20036;-71
2023/04/16 09:05:27;;;;;;;41.45;18.45;;;;;;;;;;5070388;28;20485;-70
2023/04/16 09:07:53;;;;;;;27.10;16.55;;;;;;;;;;5069881;28;20112;-72
2023/04/16 09:10:19;;;;;;;32.75;16.63;;;;;;;;;;5070682;28;20066;-71
2023/04/16 09:12:45;;;;;;;33.22;18.33;;;;;;;;;;5069965;28;20028;-71
2023/04/16 09:15:12;;;;;;;29.80;17.55;;;;;;;;;;5070417;28;20082;-71
2023/04/16 09:17:39;;;;;;;30.42;18.33;;;;;;;;;;5070060;28;20086;-71
2023/04/16 09:20:07;;;;;;;27.70;17.98;;;;;;;;;;5069130;28;20017;-71
2023/04/16 09:22:33;;;;;;;26.75;17.38;;;;;;;;;;5049480;28;20025;-71
2023/04/16 09:24:59;;;;;;;27.35;17.45;;;;;;;;;;5050211;28;20028;-71
2023/04/16 09:27:26;;;;;;;31.88;18.35;;;;;;;;;;5050133;28;20135;-70
2023/04/16 09:29:52;;;;;;;33.17;18.48;;;;;;;;;;5050277;28;20032;-70
2023/04/16 09:32:23;;;;;;;30.70;16.98;;;;;;;;;;5050066;28;20025;-72
2023/04/16 09:34:56;;;;;;;28.42;16.38;;;;;;;;;;5050346;28;20656;-70
2023/04/16 09:37:23;;;;;;;29.55;17.08;;;;;;;;;;5050203;28;20017;-70
2023/04/16 09:39:56;;;;;;;34.70;17.50;;;;;;;;;;5050117;28;20025;-71
2023/04/16 09:42:32;;;;;;;30.67;19.00;;;;;;;;;;5049739;28;20039;-72
2023/04/16 09:44:59;;;;;;;33.17;18.40;;;;;;;;;;5050628;28;20109;-70
2023/04/16 09:47:26;;;;;;;32.13;17.33;;;;;;;;;;5050397;28;20060;-71
2023/04/16 09:49:52;;;;;;;30.60;17.38;;;;;;;;;;5050901;28;20017;-71
2023/04/16 09:52:19;;;;;;;28.48;17.80;;;;;;;;;;5053741;28;20101;-71
2023/04/16 09:54:49;;;;;;;26.58;17.20;;;;;;;;;;5054001;28;20483;-71
2023/04/16 09:57:22;;;;;;;35.67;17.15;;;;;;;;;;5054380;28;20052;-72
2023/04/16 09:59:48;;;;;;;30.30;17.20;;;;;;;;;;5055337;28;20021;-72
2023/04/16 10:02:14;;;;;;;33.97;18.25;;;;;;;;;;5054564;28;20063;-72
2023/04/16 10:04:48;;;;;;;35.50;17.73;;;;;;;;;;5054718;28;20021;-72
2023/04/16 10:07:14;;;;;;;31.95;17.23;;;;;;;;;;5057219;28;20032;-72
2023/04/16 10:09:40;;;;;;;32.80;17.85;;;;;;;;;;5074158;28;20028;-72
2023/04/16 10:12:07;;;;;;;27.90;18.00;;;;;;;;;;5074095;28;20470;-71
2023/04/16 10:14:33;;;;;;;30.60;17.38;;;;;;;;;;5074708;28;20028;-70
2023/04/16 10:16:59;;;;;;;29.65;17.13;;;;;;;;;;5074946;28;20415;-70
2023/04/16 10:19:26;;;;;;;31.92;17.70;;;;;;;;;;5074793;28;20071;-70
2023/04/16 10:21:53;;;;;;;27.73;16.40;;;;;;;;;;5061453;28;20033;-70
2023/04/16 10:24:19;;;;;;;31.10;18.00;;;;;;;;;;5055065;28;20701;-72
2023/04/16 10:26:46;;;;;;;31.13;18.02;;;;;;;;;;5050655;28;20142;-71
2023/04/16 10:29:12;;;;;;;32.08;17.58;;;;;;;;;;5044161;28;20021;-71
2023/04/16 10:31:39;;;;;;;33.42;18.85;;;;;;;;;;5042249;28;20387;-71
2023/04/16 10:34:06;;;;;;;29.73;17.65;;;;;;;;;;5050139;28;20416;-71
2023/04/16 10:36:36;;;;;;;31.58;17.92;;;;;;;;;;5046483;28;20429;-71
2023/04/16 10:39:01;;;;;;;30.58;17.50;;;;;;;;;;5044952;28;20051;-71
2023/04/16 10:41:28;;;;;;;34.53;18.38;;;;;;;;;;5047429;28;20029;-71
2023/04/16 10:44:04;;;;;;;32.88;18.65;;;;;;;;;;5037577;28;20441;-71
2023/04/16 10:46:34;;;;;;;31.35;18.73;;;;;;;;;;5047027;28;20071;-71
2023/04/16 10:49:01;;;;;;;30.20;18.48;;;;;;;;;;5045038;28;20105;-70
2023/04/16 10:51:31;;;;;;;32.47;18.17;;;;;;;;;;5053166;28;20045;-71
2023/04/16 10:54:02;;;;;;;34.28;18.08;;;;;;;;;;5038882;28;20021;-73
2023/04/16 10:56:31;;;;;;;32.55;19.33;;;;;;;;;;5040797;28;20018;-70
2023/04/16 10:58:57;;;;;;;28.83;17.55;;;;;;;;;;5040455;28;20033;-71
2023/04/16 11:01:30;;;;;;;34.28;18.90;;;;;;;;;;5041979;28;20029;-73
2023/04/16 11:03:57;;;;;;;30.02;19.73;;;;;;;;;;5045177;28;20041;-72
2023/04/16 11:06:25;;;;;;;33.15;19.08;;;;;;;;;;5042407;28;20144;-73
2023/04/16 11:08:51;;;;;;;37.33;21.90;;;;;;;;;;5044591;28;20040;-72
2023/04/16 11:11:18;;;;;;;30.95;19.33;;;;;;;;;;5041117;28;20018;-70
2023/04/16 11:13:44;;;;;;;30.73;18.67;;;;;;;;;;5049430;28;20017;-73
2023/04/16 11:16:11;;;;;;;33.55;18.90;;;;;;;;;;5053276;28;20021;-72
2023/04/16 11:18:39;;;;;;;32.45;18.23;;;;;;;;;;5053701;28;20030;-72
2023/04/16 11:21:09;;;;;;;33.58;19.60;;;;;;;;;;5054077;28;20544;-72
2023/04/16 11:23:48;;;;;;;32.55;18.55;;;;;;;;;;5054464;28;20537;-73
2023/04/16 11:26:23;;;;;;;26.50;17.45;;;;;;;;;;5055007;28;20102;-71
2023/04/16 11:28:50;;;;;;;30.45;18.77;;;;;;;;;;5054849;28;20031;-72
2023/04/16 11:31:16;;;;;;;31.20;19.30;;;;;;;;;;5054139;28;20017;-71
2023/04/16 11:33:43;;;;;;;34.95;20.40;;;;;;;;;;5055048;28;20021;-72
2023/04/16 11:36:09;;;;;;;34.67;19.38;;;;;;;;;;5053931;28;20029;-71
2023/04/16 11:38:35;;;;;;;36.10;20.40;;;;;;;;;;5053430;28;20025;-72
2023/04/16 11:41:02;;;;;;;42.97;24.08;;;;;;;;;;5052998;28;20068;-71
2023/04/16 11:43:28;;;;;;;42.92;22.27;;;;;;;;;;5052499;28;20510;-70
2023/04/16 11:45:58;;;;;;;43.63;23.67;;;;;;;;;;5052883;28;20112;-71
2023/04/16 11:48:25;;;;;;;36.17;21.85;;;;;;;;;;5052541;28;20021;-71
2023/04/16 11:50:57;;;;;;;46.58;24.88;;;;;;;;;;5052794;28;20021;-71
2023/04/16 11:53:23;;;;;;;39.45;22.20;;;;;;;;;;5052761;28;20017;-72
2023/04/16 11:55:49;;;;;;;41.75;21.85;;;;;;;;;;5052838;28;20029;-70
2023/04/16 11:58:16;;;;;;;44.08;22.13;;;;;;;;;;5050823;28;20364;-70
2023/04/16 12:00:42;;;;;;;32.72;20.48;;;;;;;;;;5072697;28;20025;-71
2023/04/16 12:03:08;;;;;;;38.67;22.08;;;;;;;;;;5062543;28;20036;-70
2023/04/16 12:05:36;;;;;;;36.58;19.67;;;;;;;;;;5052803;28;20110;-70
2023/04/16 12:08:03;;;;;;;44.05;22.98;;;;;;;;;;5052078;28;20126;-71
2023/04/16 12:10:30;;;;;;;36.13;20.90;;;;;;;;;;5051946;28;20033;-71
2023/04/16 12:13:11;;;;;;;45.35;23.05;;;;;;;;;;5051316;28;20509;-71
2023/04/16 12:15:50;;;;;;;35.95;21.52;;;;;;;;;;5052492;28;20021;-72
2023/04/16 12:18:17;;;;;;;38.33;21.73;;;;;;;;;;5051716;28;20028;-72
2023/04/16 12:20:43;;;;;;;38.17;21.33;;;;;;;;;;5051292;28;20114;-72
2023/04/16 12:23:12;;;;;;;35.55;22.00;;;;;;;;;;5052206;28;20037;-73
2023/04/16 12:25:42;;;;;;;35.60;20.55;;;;;;;;;;5051934;28;20025;-71
2023/04/16 12:28:08;;;;;;;34.65;22.13;;;;;;;;;;5051239;28;20029;-72
2023/04/16 12:30:49;;;;;;;39.53;21.50;;;;;;;;;;5052328;28;20082;-72
2023/04/16 12:33:19;;;;;;;40.05;22.00;;;;;;;;;;5050247;28;20052;-72
2023/04/16 12:35:46;;;;;;;43.10;23.95;;;;;;;;;;5051145;28;20053;-71
2023/04/16 12:38:14;;;;;;;46.88;23.40;;;;;;;;;;5040797;28;20067;-72
2023/04/16 12:40:40;;;;;;;45.15;25.38;;;;;;;;;;5052096;28;20024;-72
2023/04/16 12:43:07;;;;;;;35.53;21.17;;;;;;;;;;5052064;28;20029;-72
2023/04/16 12:45:33;;;;;;;36.72;20.75;;;;;;;;;;5056172;28;20482;-72
2023/04/16 12:47:59;;;;;;;34.88;20.02;;;;;;;;;;5059320;28;20048;-73
2023/04/16 12:50:27;;;;;;;31.08;20.02;;;;;;;;;;5051811;28;20361;-73
2023/04/16 12:52:53;;;;;;;35.92;19.42;;;;;;;;;;5052479;28;20086;-71
2023/04/16 12:55:19;;;;;;;33.42;18.98;;;;;;;;;;5051971;28;20424;-72
2023/04/16 12:57:47;;;;;;;39.17;20.33;;;;;;;;;;5051575;28;20486;-73
2023/04/16 13:00:13;;;;;;;33.42;21.17;;;;;;;;;;5052046;28;20029;-74
2023/04/16 13:02:39;;;;;;;37.33;19.65;;;;;;;;;;5052157;28;20494;-74
2023/04/16 13:05:06;;;;;;;41.22;23.17;;;;;;;;;;5051954;28;20029;-72
2023/04/16 13:07:32;;;;;;;34.97;20.08;;;;;;;;;;5056968;28;20033;-73
2023/04/16 13:09:59;;;;;;;33.88;21.40;;;;;;;;;;5055132;28;20029;-72
2023/04/16 13:12:26;;;;;;;39.15;20.83;;;;;;;;;;5054726;28;20017;-73
2023/04/16 13:14:52;;;;;;;36.58;20.60;;;;;;;;;;5051477;28;20013;-72
2023/04/16 13:17:18;;;;;;;34.72;21.20;;;;;;;;;;5064687;28;20536;-72
2023/04/16 13:19:44;;;;;;;35.65;21.27;;;;;;;;;;5071191;28;20024;-71
2023/04/16 13:22:10;;;;;;;34.05;20.42;;;;;;;;;;5071267;28;20389;-74
2023/04/16 13:24:37;;;;;;;32.80;19.77;;;;;;;;;;5073102;28;20033;-75
2023/04/16 13:27:03;;;;;;;35.22;19.92;;;;;;;;;;5077047;28;20021;-72
2023/04/16 13:29:30;;;;;;;34.05;20.20;;;;;;;;;;5075742;28;20489;-72
2023/04/16 13:31:56;;;;;;;31.35;18.98;;;;;;;;;;5067493;28;20097;-71
2023/04/16 13:34:22;;;;;;;33.53;18.23;;;;;;;;;;5065927;28;20503;-72
2023/04/16 13:36:48;;;;;;;34.20;19.05;;;;;;;;;;5055185;28;20100;-72
2023/04/16 13:39:14;;;;;;;30.50;20.63;;;;;;;;;;5054362;28;20074;-72
2023/04/16 13:41:40;;;;;;;31.00;18.90;;;;;;;;;;5055382;28;20029;-72
2023/04/16 13:44:07;;;;;;;32.67;19.08;;;;;;;;;;5054712;28;20386;-71
2023/04/16 13:46:33;;;;;;;52.97;29.17;;;;;;;;;;5054926;28;20108;-71
2023/04/16 13:49:00;;;;;;;36.20;20.02;;;;;;;;;;5054595;28;20174;-71
2023/04/16 13:51:26;;;;;;;34.63;20.40;;;;;;;;;;5054696;28;20505;-72
2023/04/16 13:53:53;;;;;;;31.98;19.42;;;;;;;;;;5054597;28;20028;-71
2023/04/16 13:56:19;;;;;;;30.83;19.98;;;;;;;;;;5054844;28;20045;-72
2023/04/16 13:58:45;;;;;;;36.75;20.13;;;;;;;;;;5054585;28;20099;-72
2023/04/16 14:01:12;;;;;;;33.90;20.25;;;;;;;;;;5054908;28;20113;-72
2023/04/16 14:03:39;;;;;;;29.98;19.63;;;;;;;;;;5054223;28;20036;-73
2023/04/16 14:06:05;;;;;;;36.10;19.55;;;;;;;;;;5057716;28;20017;-72
2023/04/16 14:08:31;;;;;;;32.85;19.38;;;;;;;;;;5065528;28;20066;-71
2023/04/16 14:10:57;;;;;;;30.98;19.25;;;;;;;;;;5061802;28;20028;-71
2023/04/16 14:13:24;;;;;;;37.13;19.95;;;;;;;;;;5055238;28;20096;-71